Time;durP1;ratioP1;P1;durP2;ratioP2;P2;SDS_P1;SDS_P2;PMS_P1;PMS_P2;Temp;Humidity;BMP_temperature;BMP_pressure;BME280_temperature;BME280_humidity;BME280_pressure;Samples;Min_cycle;Max_cycle;Signal;HPM_P1;HPM_P2
2024/03/21 00:02:01;;;;;;;;;62.40;48.00;;;;;9.71;100.00;99165.69;6114084;28;96330;-53
2024/03/21 00:05:03;;;;;;;;;65.00;49.00;;;;;9.64;100.00;99167.53;6118901;28;96309;-54
2024/03/21 00:08:06;;;;;;;;;62.20;48.80;;;;;9.58;100.00;99176.44;6133286;28;96306;-53
2024/03/21 00:11:07;;;;;;;;;63.00;47.00;;;;;9.56;100.00;99168.59;6123667;28;96408;-53
2024/03/21 00:14:11;;;;;;;;;62.80;48.80;;;;;9.55;100.00;99169.63;6118924;28;98394;-54
2024/03/21 00:17:13;;;;;;;;;66.40;49.20;;;;;9.32;100.00;99125.34;6120556;28;96501;-55
2024/03/21 00:20:15;;;;;;;;;62.20;48.60;;;;;9.49;100.00;99161.53;6102928;28;96626;-55
2024/03/21 00:23:17;;;;;;;;;62.00;48.00;;;;;9.44;100.00;99156.78;6124213;28;96886;-55
2024/03/21 00:26:18;;;;;;;;;64.20;47.60;;;;;9.38;100.00;99154.91;6107887;28;96281;-55
2024/03/21 00:29:24;;;;;;;;;63.67;48.67;;;;;9.33;100.00;99160.13;6123997;28;96424;-55
2024/03/21 00:32:26;;;;;;;;;63.00;48.00;;;;;9.27;100.00;99152.88;6118742;28;96395;-55
2024/03/21 00:35:28;;;;;;;;;62.40;48.00;;;;;9.21;100.00;99150.16;6078585;28;99664;-55
2024/03/21 00:38:30;;;;;;;;;57.50;46.00;;;;;9.16;100.00;99150.78;6088627;28;96717;-55
2024/03/21 00:41:32;;;;;;;;;64.00;50.40;;;;;9.11;100.00;99147.88;6084143;28;96354;-55
2024/03/21 00:44:35;;;;;;;;;62.25;48.00;;;;;8.55;100.00;99070.25;6090900;28;96258;-55
2024/03/21 00:47:37;;;;;;;;;61.50;48.00;;;;;8.94;100.00;99146.63;6083493;28;98350;-55
2024/03/21 00:50:38;;;;;;;;;61.50;50.00;;;;;8.89;100.00;99141.88;6112724;28;96259;-55
2024/03/21 00:53:40;;;;;;;;;64.60;48.00;;;;;8.83;100.00;99150.75;6108214;28;96796;-55
2024/03/21 00:56:42;;;;;;;;;62.00;49.00;;;;;8.78;100.00;99145.16;6123382;28;96480;-55
2024/03/21 00:59:47;;;;;;;;;62.00;47.00;;;;;8.72;100.00;99139.75;6105527;28;97206;-55
2024/03/21 01:02:49;;;;;;;;;60.00;46.00;;;;;8.67;100.00;99137.69;6097772;28;98545;-55
2024/03/21 01:05:54;;;;;;;;;61.40;48.00;;;;;8.60;100.00;99132.28;6123780;28;96786;-55
2024/03/21 01:08:57;;;;;;;;;62.00;47.20;;;;;8.53;100.00;99144.06;6123436;28;96316;-55
2024/03/21 01:11:58;;;;;;;;;62.40;47.40;;;;;8.47;100.00;99140.31;6099985;28;96300;-55
2024/03/21 01:15:02;;;;;;;;;61.20;46.40;;;;;8.42;100.00;99140.09;6116879;28;96618;-55
2024/03/21 01:18:06;;;;;;;;;59.00;46.00;;;;;8.41;100.00;99135.75;6105518;28;97473;-55
2024/03/21 01:21:09;;;;;;;;;62.20;47.20;;;;;8.33;100.00;99129.72;6123329;28;96863;-55
2024/03/21 01:24:10;;;;;;;;;64.00;49.00;;;;;8.32;100.00;99128.06;6106664;28;98509;-55
2024/03/21 01:27:14;;;;;;;;;60.60;47.60;;;;;8.24;100.00;99115.63;6133636;28;96849;-53
2024/03/21 01:30:17;;;;;;;;;60.60;47.00;;;;;8.13;100.00;99119.72;6120310;28;96344;-53
2024/03/21 01:33:19;;;;;;;;;61.40;47.60;;;;;7.70;100.00;99059.22;6133524;28;96292;-53
2024/03/21 01:36:20;;;;;;;;;63.60;49.60;;;;;8.06;100.00;99118.03;6118049;28;96335;-53
2024/03/21 01:39:23;;;;;;;;;61.00;47.00;;;;;7.98;100.00;99110.13;6133564;28;96221;-53
2024/03/21 01:42:24;;;;;;;;;60.00;47.00;;;;;7.95;100.00;99119.44;6124822;28;96914;-53
2024/03/21 01:45:28;;;;;;;;;61.00;47.75;;;;;7.91;100.00;99110.13;6113125;28;96302;-53
2024/03/21 01:48:29;;;;;;;;;61.00;48.00;;;;;7.80;100.00;99097.25;6130502;28;96711;-53
2024/03/21 01:51:32;;;;;;;;;58.75;45.75;;;;;7.89;100.00;99111.31;6116195;28;100423;-53
2024/03/21 01:54:33;;;;;;;;;61.60;46.40;;;;;7.87;100.00;99113.41;6126467;28;96306;-53
2024/03/21 01:57:36;;;;;;;;;63.00;48.00;;;;;7.87;100.00;99110.72;6108353;28;96657;-53
2024/03/21 02:00:39;;;;;;;;;60.80;47.20;;;;;7.86;100.00;99111.72;6116786;28;97000;-53
2024/03/21 02:03:41;;;;;;;;;60.60;47.00;;;;;7.85;100.00;99116.28;6141640;23;98103;-57
2024/03/21 02:06:43;;;;;;;;;62.60;47.40;;;;;7.84;100.00;99109.25;6115110;28;96479;-57
2024/03/21 02:09:44;;;;;;;;;60.75;46.00;;;;;7.86;100.00;99112.56;6115805;28;96322;-56
2024/03/21 02:12:47;;;;;;;;;58.00;46.00;;;;;7.90;100.00;99118.34;6097339;28;98381;-56
2024/03/21 02:15:50;;;;;;;;;61.60;48.40;;;;;7.92;100.00;99110.91;6106771;28;96362;-57
2024/03/21 02:18:53;;;;;;;;;65.40;50.00;;;;;7.87;100.00;99098.09;6094822;28;96745;-56
2024/03/21 02:25:17;;;;;;;;;61.40;47.00;;;;;7.91;100.00;99112.81;6114922;28;96992;-56
2024/03/21 02:28:18;;;;;;;;;58.60;46.00;;;;;7.88;100.00;99120.41;6114411;28;96842;-56
2024/03/21 02:31:22;;;;;;;;;62.40;47.60;;;;;7.88;100.00;99117.72;6113343;28;96912;-56
2024/03/21 02:34:23;;;;;;;;;58.20;46.60;;;;;7.86;100.00;99114.41;6097221;28;96891;-57
2024/03/21 02:37:27;;;;;;;;;62.00;48.40;;;;;7.83;100.00;99119.16;6097113;28;96531;-57
2024/03/21 02:40:30;;;;;;;;;61.40;47.00;;;;;7.77;100.00;99122.63;6113521;28;96253;-57
2024/03/21 02:43:32;;;;;;;;;61.80;46.60;;;;;7.76;100.00;99120.16;6114116;28;97131;-57
2024/03/21 02:46:33;;;;;;;;;62.00;47.20;;;;;7.75;100.00;99118.50;6095820;28;98365;-58
2024/03/21 02:49:35;;;;;;;;;63.00;47.00;;;;;7.71;100.00;99120.75;6113209;28;96596;-56
2024/03/21 02:52:38;;;;;;;;;57.20;46.20;;;;;7.65;100.00;99126.91;6114549;28;96232;-57
2024/03/21 02:55:40;;;;;;;;;59.80;47.20;;;;;7.59;100.00;99118.78;6102043;28;96790;-56
2024/03/21 02:58:42;;;;;;;;;62.40;48.00;;;;;7.58;100.00;99130.53;6095514;28;96295;-57
2024/03/21 03:01:44;;;;;;;;;58.60;46.00;;;;;7.52;100.00;99121.44;6114389;28;96928;-57
2024/03/21 03:04:45;;;;;;;;;57.67;46.67;;;;;7.49;100.00;99119.16;6089532;28;99435;-57
2024/03/21 03:07:49;;;;;;;;;60.25;46.75;;;;;6.89;100.00;99033.97;6114471;28;96234;-57
2024/03/21 03:10:50;;;;;;;;;62.00;46.40;;;;;7.41;100.00;99113.94;6114279;28;96976;-56
2024/03/21 03:13:52;;;;;;;;;59.00;46.00;;;;;7.36;100.00;99119.06;6105322;28;96346;-57
2024/03/21 03:16:54;;;;;;;;;60.20;47.20;;;;;7.29;100.00;99116.31;6118977;28;96636;-53
2024/03/21 03:19:56;;;;;;;;;61.67;47.67;;;;;7.37;100.00;99128.78;6123327;28;96242;-53
2024/03/21 03:22:58;;;;;;;;;58.80;46.40;;;;;7.37;100.00;99126.09;6105290;28;96419;-53
2024/03/21 03:26:01;;;;;;;;;60.75;47.75;;;;;7.35;100.00;99120.09;6097705;28;96617;-53
2024/03/21 03:29:03;;;;;;;;;60.60;46.00;;;;;7.38;100.00;99127.72;6106872;28;97078;-53
2024/03/21 03:32:05;;;;;;;;;61.75;47.00;;;;;7.40;100.00;99123.00;6123027;28;96304;-53
2024/03/21 03:38:34;;;;;;;;;59.00;47.20;;;;;7.47;100.00;99125.75;6082041;28;96666;-54
2024/03/21 03:41:37;;;;;;;;;59.00;47.00;;;;;7.49;100.00;99119.16;6109779;28;98386;-55
2024/03/21 03:44:39;;;;;;;;;60.00;46.80;;;;;7.51;100.00;99117.09;6120772;28;96845;-53
2024/03/21 03:47:41;;;;;;;;;62.00;47.00;;;;;7.51;100.00;99118.97;6119067;28;96309;-53
2024/03/21 03:50:43;;;;;;;;;57.40;45.00;;;;;7.59;100.00;99126.84;6106182;28;96452;-53
2024/03/21 03:53:48;;;;;;;;;59.80;46.80;;;;;7.60;100.00;99118.59;6121536;28;96234;-54
2024/03/21 03:56:49;;;;;;;;;61.20;48.00;;;;;7.63;100.00;99123.56;6121865;28;96261;-53
2024/03/21 03:59:51;;;;;;;;;61.50;47.75;;;;;7.65;100.00;99126.06;6123135;28;96320;-53
2024/03/21 04:02:53;;;;;;;;;61.80;48.00;;;;;7.66;100.00;99125.88;6105115;28;96317;-53
2024/03/21 04:05:56;;;;;;;;;61.00;47.40;;;;;7.66;100.00;99123.19;6097058;28;98286;-53
2024/03/21 04:09:00;;;;;;;;;60.60;48.00;;;;;7.68;100.00;99114.91;6129773;28;96717;-52
2024/03/21 04:12:01;;;;;;;;;62.00;48.00;;;;;7.50;100.00;99101.19;6112925;28;96432;-52
2024/03/21 04:15:04;;;;;;;;;62.00;48.00;;;;;7.65;100.00;99134.09;6128011;28;96415;-52
2024/03/21 04:18:05;;;;;;;;;60.80;47.80;;;;;7.62;100.00;99138.03;6115476;28;96895;-52
2024/03/21 04:21:08;;;;;;;;;62.40;48.00;;;;;7.62;100.00;99138.03;6127866;28;96614;-54
2024/03/21 04:24:16;;;;;;;;;64.00;48.00;;;;;7.65;100.00;99140.31;6127257;28;96969;-57
2024/03/21 04:27:18;;;;;;;;;61.00;47.00;;;;;7.61;100.00;99135.53;6147724;28;97230;-56
2024/03/21 04:30:20;;;;;;;;;60.00;47.00;;;;;7.61;100.00;99140.91;6147174;28;96281;-56
2024/03/21 04:33:22;;;;;;;;;58.25;46.25;;;;;7.63;100.00;99142.34;6125014;28;97127;-56
2024/03/21 04:36:23;;;;;;;;;56.20;45.20;;;;;7.62;100.00;99138.03;6146524;28;96645;-55
2024/03/21 04:39:27;;;;;;;;;59.50;47.00;;;;;7.62;100.00;99143.41;6131852;28;96409;-55
2024/03/21 04:42:30;;;;;;;;;62.00;47.00;;;;;7.59;100.00;99138.41;6154065;28;96293;-57
2024/03/21 04:45:32;;;;;;;;;60.00;46.00;;;;;7.67;100.00;99148.19;6156109;22;99336;-57
2024/03/21 04:48:35;;;;;;;;;62.00;46.60;;;;;7.70;100.00;99147.78;6169236;28;96461;-56
2024/03/21 04:51:36;;;;;;;;;59.80;46.20;;;;;7.71;100.00;99152.94;6140840;28;96752;-57
2024/03/21 04:54:39;;;;;;;;;60.00;47.40;;;;;7.70;100.00;99159.34;6144495;28;96575;-56
2024/03/21 04:57:42;;;;;;;;;62.00;46.75;;;;;7.56;100.00;99137.97;6116186;28;97070;-56
2024/03/21 05:00:44;;;;;;;;;57.20;46.00;;;;;7.72;100.00;99165.31;6133986;28;96426;-55
2024/03/21 05:03:45;;;;;;;;;62.00;48.00;;;;;7.72;100.00;99159.94;6144090;28;96572;-56
2024/03/21 05:06:48;;;;;;;;;59.60;46.40;;;;;7.82;100.00;99156.91;6141663;28;96386;-55
2024/03/21 05:09:50;;;;;;;;;56.20;44.20;;;;;7.84;100.00;99161.06;6149443;28;96364;-56
2024/03/21 05:12:52;;;;;;;;;60.40;45.00;;;;;7.88;100.00;99160.66;6130855;28;96595;-57
2024/03/21 05:15:53;;;;;;;;;63.00;48.00;;;;;7.95;100.00;99165.06;6130723;28;96574;-56
2024/03/21 05:18:55;;;;;;;;;57.20;45.00;;;;;7.90;100.00;99150.56;6130197;28;96839;-57
2024/03/21 05:21:57;;;;;;;;;60.75;46.50;;;;;8.09;100.00;99164.09;6141149;28;96932;-57
2024/03/21 05:25:00;;;;;;;;;61.00;48.00;;;;;8.19;100.00;99161.88;6142827;28;97033;-57
2024/03/21 05:28:02;;;;;;;;;62.00;46.50;;;;;8.43;100.00;99174.00;6141111;28;96466;-57
2024/03/21 05:31:20;;;;;;;;;60.60;46.60;;;;;8.60;100.00;99180.66;6147806;28;97410;-56
2024/03/21 05:34:22;;;;;;;;;59.25;46.00;;;;;8.78;100.00;99181.97;6124746;28;97075;-57
2024/03/21 05:37:23;;;;;;;;;56.50;45.25;;;;;8.90;100.00;99180.31;6150990;28;96345;-56
2024/03/21 05:40:26;;;;;;;;;58.50;45.75;;;;;9.10;100.00;99178.50;6132117;28;97407;-56
2024/03/21 05:43:27;;;;;;;;;57.80;46.20;;;;;9.25;100.00;99173.75;6147569;28;96285;-56
2024/03/21 05:46:29;;;;;;;;;58.00;46.00;;;;;9.33;100.00;99180.81;6126861;28;96469;-57
2024/03/21 05:49:30;;;;;;;;;60.20;46.00;;;;;9.61;100.00;99184.13;6136232;28;98504;-56
2024/03/21 05:52:32;;;;;;;;;60.00;45.00;;;;;9.72;100.00;99178.09;6136806;28;97473;-57
2024/03/21 05:55:35;;;;;;;;;60.00;46.00;;;;;9.66;100.00;99173.56;6133230;28;99576;-58
2024/03/21 05:58:37;;;;;;;;;60.40;47.00;;;;;9.50;100.00;99166.72;6147468;28;96418;-56
2024/03/21 06:01:38;;;;;;;;;60.60;46.00;;;;;9.06;100.00;99096.56;6134065;28;96840;-56
2024/03/21 06:04:40;;;;;;;;;57.00;44.40;;;;;9.38;100.00;99184.50;6142185;28;96334;-55
2024/03/21 06:07:41;;;;;;;;;60.80;46.00;;;;;9.23;100.00;99181.22;6127459;28;96827;-55
2024/03/21 06:10:44;;;;;;;;;60.00;46.00;;;;;9.18;100.00;99180.19;6147230;28;96638;-57
2024/03/21 06:13:46;;;;;;;;;63.00;47.00;;;;;9.12;100.00;99185.34;6149935;28;96393;-56
2024/03/21 06:16:47;;;;;;;;;66.25;51.00;;;;;9.10;100.00;99182.00;6151392;28;96419;-57
2024/03/21 06:19:50;;;;;;;;;62.60;48.00;;;;;9.00;100.00;99170.81;6151202;28;97030;-58
2024/03/21 06:22:51;;;;;;;;;63.50;49.25;;;;;9.05;100.00;99175.59;6152600;28;96349;-57
2024/03/21 06:25:54;;;;;;;;;66.00;50.00;;;;;9.20;100.00;99188.84;6149713;28;97003;-57
2024/03/21 06:28:55;;;;;;;;;66.00;50.00;;;;;9.39;100.00;99186.19;6143760;28;96566;-56
2024/03/21 06:31:57;;;;;;;;;66.20;50.40;;;;;9.70;100.00;99190.94;6109823;28;97127;-55
2024/03/21 06:34:59;;;;;;;;;64.00;49.00;;;;;10.14;100.00;99189.41;6149232;28;96484;-55
2024/03/21 06:38:00;;;;;;;;;64.20;48.00;;;;;10.51;100.00;99185.97;6130420;28;98647;-55
2024/03/21 06:41:04;;;;;;;;;64.00;48.75;;;;;10.85;100.00;99155.94;6124904;28;96137;-55
2024/03/21 06:44:05;;;;;;;;;61.00;46.20;;;;;11.50;100.00;99180.78;6109181;28;96523;-56
2024/03/21 06:47:07;;;;;;;;;65.40;51.00;;;;;11.86;100.00;99182.81;6139773;28;96632;-56
2024/03/21 06:50:11;;;;;;;;;65.00;48.00;;;;;12.35;100.00;99173.75;6126847;28;96909;-58
2024/03/21 06:53:14;;;;;;;;;65.00;50.20;;;;;12.73;100.00;99184.28;6110617;28;96673;-58
2024/03/21 06:56:17;;;;;;;;;62.40;48.00;;;;;13.05;100.00;99175.94;6110845;28;97045;-57
2024/03/21 06:59:18;;;;;;;;;61.00;48.00;;;;;13.94;100.00;99177.63;6125947;28;96369;-57
2024/03/21 07:02:20;;;;;;;;;62.00;48.00;;;;;15.59;100.00;99176.59;6122098;28;96531;-58
2024/03/21 07:05:23;;;;;;;;;64.20;49.40;;;;;16.60;100.00;99169.13;6128697;28;97037;-57
2024/03/21 07:08:25;;;;;;;;;63.00;48.00;;;;;16.96;100.00;99175.78;6135877;28;96603;-58
2024/03/21 07:11:29;;;;;;;;;61.00;47.60;;;;;17.09;100.00;99182.72;6142329;28;96475;-58
2024/03/21 07:14:32;;;;;;;;;58.40;46.00;;;;;17.89;100.00;99170.91;6155370;28;97091;-58
2024/03/21 07:17:35;;;;;;;;;63.33;49.33;;;;;19.85;97.08;99162.53;6140059;28;96399;-59
2024/03/21 07:20:36;;;;;;;;;62.60;48.00;;;;;22.18;83.15;99163.22;6153872;28;96775;-56
2024/03/21 07:23:38;;;;;;;;;64.75;50.00;;;;;24.01;73.90;99156.78;6150396;28;96370;-58
2024/03/21 07:26:40;;;;;;;;;63.50;48.00;;;;;25.24;65.76;99149.34;6149784;28;96396;-59
2024/03/21 07:29:43;;;;;;;;;62.00;48.20;;;;;26.03;61.09;99166.19;6150092;28;96899;-59
2024/03/21 07:32:44;;;;;;;;;60.00;46.00;;;;;26.65;58.81;99147.63;6140498;28;96419;-56
2024/03/21 07:35:53;;;;;;;;;61.00;46.80;;;;;27.28;53.29;99162.88;6146451;28;96374;-57
2024/03/21 07:38:55;;;;;;;;;64.00;48.40;;;;;27.50;54.28;99164.72;6127579;28;96511;-56
2024/03/21 07:41:59;;;;;;;;;62.00;48.60;;;;;27.27;52.95;99163.22;6128865;28;96846;-59
2024/03/21 07:45:03;;;;;;;;;61.00;47.00;;;;;26.65;53.02;99158.69;6136427;28;96336;-58
2024/03/21 07:48:06;;;;;;;;;62.00;48.00;;;;;26.28;54.59;99160.00;6130132;28;96305;-59
2024/03/21 07:51:08;;;;;;;;;62.00;49.67;;;;;26.24;55.13;99158.22;6137800;28;96309;-58
2024/03/21 07:54:09;;;;;;;;;66.40;50.00;;;;;26.35;55.17;99159.53;6133615;28;99199;-58
2024/03/21 07:57:18;;;;;;;;;61.00;48.75;;;;;26.63;54.89;99160.16;6121491;28;96403;-55
2024/03/21 08:00:20;;;;;;;;;62.80;48.00;;;;;27.14;53.28;99159.47;6124202;28;96503;-54
2024/03/21 08:03:21;;;;;;;;;63.00;50.00;;;;;27.31;51.53;99156.72;6124271;28;96791;-54
2024/03/21 08:06:23;;;;;;;;;65.50;50.75;;;;;27.74;50.76;99158.69;6130254;28;96919;-54
2024/03/21 08:09:25;;;;;;;;;62.00;48.40;;;;;28.32;48.99;99163.59;6117143;28;96371;-54
2024/03/21 08:12:28;;;;;;;;;62.00;49.00;;;;;29.02;47.10;99142.72;6126951;28;96515;-54
2024/03/21 08:15:29;;;;;;;;;64.25;49.25;;;;;29.81;44.25;99167.53;6125678;28;97418;-54
2024/03/21 08:18:33;;;;;;;;;62.00;49.80;;;;;30.40;42.58;99156.13;6134390;28;96382;-55
2024/03/21 08:21:35;;;;;;;;;62.00;49.00;;;;;30.59;40.48;99159.22;6132910;28;96911;-55
2024/03/21 08:24:38;;;;;;;;;63.00;50.00;;;;;30.74;39.36;99155.72;6125190;28;96521;-55
2024/03/21 08:27:42;;;;;;;;;62.00;47.00;;;;;30.85;39.08;99168.00;6109264;28;96372;-55
2024/03/21 08:30:46;;;;;;;;;62.00;49.00;;;;;30.58;38.87;99157.59;6119023;28;96355;-54
2024/03/21 08:33:48;;;;;;;;;62.40;48.80;;;;;30.49;38.21;99154.94;6127751;28;96338;-54
2024/03/21 08:36:49;;;;;;;;;61.50;47.50;;;;;30.09;38.06;99154.72;6121758;28;96532;-54
2024/03/21 08:39:51;;;;;;;;;63.00;48.40;;;;;30.15;39.51;99160.88;6125027;28;96629;-54
2024/03/21 08:42:54;;;;;;;;;57.00;45.00;;;;;30.67;36.34;99155.50;6128000;28;96660;-54
2024/03/21 08:45:56;;;;;;;;;58.00;46.00;;;;;31.33;33.95;99149.63;6115697;28;96572;-54
2024/03/21 08:48:58;;;;;;;;;59.25;45.25;;;;;32.05;32.82;99153.31;6132569;28;96619;-53
2024/03/21 08:51:59;;;;;;;;;58.00;46.00;;;;;32.86;31.72;99138.66;6129011;28;96413;-53
2024/03/21 08:55:01;;;;;;;;;58.40;45.60;;;;;33.95;29.86;99150.63;6118861;28;96857;-53
2024/03/21 08:58:04;;;;;;;;;60.50;46.00;;;;;34.86;28.57;99147.03;6130898;28;96365;-54
2024/03/21 09:01:06;;;;;;;;;58.00;46.00;;;;;35.34;27.88;99143.34;6124609;28;96583;-55
2024/03/21 09:04:07;;;;;;;;;60.00;46.00;;;;;35.61;28.12;99135.69;6115361;28;96435;-55
2024/03/21 09:07:09;;;;;;;;;63.00;49.00;;;;;35.89;28.81;99133.25;6147926;28;96492;-59
2024/03/21 09:10:10;;;;;;;;;62.00;48.00;;;;;36.26;29.01;99140.88;6139834;28;96894;-59
2024/03/21 09:13:14;;;;;;;;;62.00;48.00;;;;;36.73;29.49;99138.09;6134684;28;96380;-59
2024/03/21 09:16:16;;;;;;;;;63.00;49.00;;;;;36.69;28.69;99142.06;6131420;28;96476;-58
2024/03/21 09:19:17;;;;;;;;;62.40;48.80;;;;;36.65;29.31;99136.44;6132760;28;96628;-59
2024/03/21 09:22:19;;;;;;;;;62.00;48.00;;;;;36.49;29.11;99135.84;6140750;28;96751;-59
2024/03/21 09:25:20;;;;;;;;;59.80;47.00;;;;;36.29;28.70;99124.06;6131567;28;96475;-59
2024/03/21 09:28:23;;;;;;;;;61.25;48.00;;;;;36.02;29.01;99125.34;6139219;28;96857;-59
2024/03/21 09:31:25;;;;;;;;;60.40;46.00;;;;;36.01;29.05;99118.13;6129356;28;96476;-57
2024/03/21 09:34:26;;;;;;;;;60.00;48.00;;;;;36.10;28.57;99112.22;6132212;28;96241;-60
2024/03/21 09:37:28;;;;;;;;;62.20;48.60;;;;;36.23;28.31;99113.56;6144680;28;96854;-59
2024/03/21 09:40:30;;;;;;;;;61.80;48.00;;;;;36.14;28.94;99111.06;6139406;28;97229;-60
2024/03/21 09:43:33;;;;;;;;;59.60;47.00;;;;;35.91;27.93;99104.81;6132231;28;96329;-60
2024/03/21 09:46:38;;;;;;;;;59.00;47.00;;;;;35.76;27.90;99109.47;6139062;28;97192;-60
2024/03/21 09:49:40;;;;;;;;;58.25;46.00;;;;;35.63;28.61;99105.25;6128992;28;96250;-59
2024/03/21 09:52:43;;;;;;;;;60.00;47.00;;;;;35.74;27.39;99103.41;6139398;28;96880;-60
2024/03/21 09:55:44;;;;;;;;;62.20;47.00;;;;;35.41;27.96;99098.59;6134125;28;96838;-60
2024/03/21 09:58:48;;;;;;;;;61.00;47.00;;;;;35.56;28.29;99108.00;6140582;28;96529;-58
2024/03/21 10:01:49;;;;;;;;;59.50;46.00;;;;;35.39;28.00;99103.78;6139745;28;96435;-60
2024/03/21 10:04:51;;;;;;;;;58.25;46.50;;;;;34.98;27.73;99096.41;6130218;28;98067;-59
2024/03/21 10:07:52;;;;;;;;;60.00;46.75;;;;;34.68;27.22;99101.97;6138746;28;96363;-61
2024/03/21 10:10:54;;;;;;;;;58.50;45.00;;;;;34.53;27.61;99088.88;6140095;28;96357;-60
2024/03/21 10:13:57;;;;;;;;;61.00;47.40;;;;;34.43;29.52;99084.75;6140450;28;96591;-60
2024/03/21 10:17:03;;;;;;;;;59.40;46.40;;;;;34.50;28.91;99078.47;6134236;28;96530;-58
2024/03/21 10:20:05;;;;;;;;;58.40;46.00;;;;;34.47;28.98;99076.38;6116316;28;96527;-57
2024/03/21 10:23:15;;;;;;;;;58.50;46.00;;;;;34.79;28.21;99077.72;6111784;28;97080;-58
2024/03/21 10:26:17;;;;;;;;;55.80;45.00;;;;;34.46;27.55;99081.19;6104264;28;96468;-58
2024/03/21 10:29:21;;;;;;;;;58.40;46.00;;;;;35.02;28.02;99081.25;6111500;28;96520;-58
2024/03/21 10:32:24;;;;;;;;;57.00;46.00;;;;;35.49;27.77;99077.84;6121217;28;96874;-59
2024/03/21 10:35:25;;;;;;;;;58.00;46.00;;;;;36.19;26.73;99077.03;6122582;28;96371;-59
2024/03/21 10:38:27;;;;;;;;;57.40;46.00;;;;;36.99;26.35;99074.44;6111452;28;97104;-58
2024/03/21 10:41:31;;;;;;;;;55.40;44.60;;;;;37.70;25.46;99079.19;6105901;28;96357;-59
2024/03/21 10:44:35;;;;;;;;;56.50;43.00;;;;;38.41;25.06;99070.84;6113224;28;96838;-59
2024/03/21 10:47:46;;;;;;;;;55.00;44.00;;;;;39.19;25.03;99079.19;6112962;28;96227;-59
2024/03/21 10:50:47;;;;;;;;;56.60;45.00;;;;;39.59;23.10;99074.16;6106940;28;97242;-59
2024/03/21 10:53:55;;;;;;;;;55.00;44.00;;;;;39.56;24.02;99072.19;6107065;28;97332;-59
2024/03/21 10:56:58;;;;;;;;;54.80;44.00;;;;;39.86;23.17;99066.78;6121000;28;96827;-59
2024/03/21 11:00:06;;;;;;;;;56.40;46.00;;;;;40.38;23.10;99055.50;6127149;28;96537;-58
2024/03/21 11:03:15;;;;;;;;;56.00;45.00;;;;;40.92;22.42;99048.13;6110587;28;96325;-59
2024/03/21 11:06:19;;;;;;;;;55.20;44.20;;;;;41.33;23.01;99054.53;6120433;28;98358;-59
2024/03/21 11:09:25;;;;;;;;;56.00;45.50;;;;;42.05;21.77;99049.47;6108640;28;97599;-59
2024/03/21 11:12:26;;;;;;;;;57.00;44.00;;;;;42.76;20.79;99042.63;6114474;28;96699;-59
2024/03/21 11:15:30;;;;;;;;;54.60;44.00;;;;;43.28;20.64;99039.94;6112567;28;97485;-59
2024/03/21 11:18:31;;;;;;;;;52.00;43.00;;;;;43.57;19.54;99040.94;6120196;28;96513;-59
2024/03/21 11:21:33;;;;;;;;;52.60;43.00;;;;;42.93;20.00;99037.81;6104633;28;96948;-59
2024/03/21 11:24:35;;;;;;;;;55.20;44.00;;;;;42.52;20.38;99036.13;6104692;28;96940;-59
2024/03/21 11:27:37;;;;;;;;;52.60;43.80;;;;;42.19;19.60;99028.59;6138191;28;96721;-61
2024/03/21 11:30:44;;;;;;;;;53.00;42.00;;;;;42.53;20.04;99036.94;6119022;28;96366;-62
2024/03/21 11:33:46;;;;;;;;;49.00;40.00;;;;;42.68;20.39;99013.59;6132214;28;96480;-61
2024/03/21 11:36:48;;;;;;;;;53.00;44.00;;;;;43.00;19.75;99026.34;6139966;28;96261;-60
2024/03/21 11:39:50;;;;;;;;;52.00;43.00;;;;;42.95;19.56;99026.84;6147103;28;96499;-59
2024/03/21 11:42:52;;;;;;;;;51.80;41.80;;;;;42.39;19.96;99032.31;6142569;28;96936;-60
2024/03/21 11:45:57;;;;;;;;;51.00;42.00;;;;;41.60;19.51;99022.63;6139384;28;96369;-61
2024/03/21 11:49:02;;;;;;;;;52.00;43.00;;;;;40.58;20.35;99014.94;6142054;28;96456;-62
2024/03/21 11:52:06;;;;;;;;;53.00;42.20;;;;;39.80;19.39;99006.34;6138205;28;96249;-61
2024/03/21 11:55:08;;;;;;;;;49.00;40.60;;;;;39.63;20.27;99008.06;6137652;28;96503;-60
2024/03/21 11:58:10;;;;;;;;;50.00;41.40;;;;;39.62;20.48;99005.63;6124863;28;96463;-61
2024/03/21 12:01:13;;;;;;;;;50.00;41.20;;;;;39.29;19.76;98999.34;6140587;28;96496;-59
2024/03/21 12:04:15;;;;;;;;;52.40;43.00;;;;;38.73;20.07;98989.09;6131813;28;96963;-60
2024/03/21 12:07:16;;;;;;;;;51.60;42.20;;;;;38.34;20.92;98977.09;6128117;28;96356;-61
2024/03/21 12:10:19;;;;;;;;;52.00;42.00;;;;;38.04;20.86;99000.03;6131914;28;96388;-60
2024/03/21 12:13:20;;;;;;;;;49.00;40.00;;;;;37.78;21.29;98992.75;6127075;28;96628;-60
2024/03/21 12:16:23;;;;;;;;;48.00;39.00;;;;;37.26;20.89;98985.81;6128396;28;97120;-60
2024/03/21 12:19:24;;;;;;;;;49.00;39.60;;;;;36.32;21.37;98990.50;6124421;28;96291;-61
2024/03/21 12:22:27;;;;;;;;;50.25;40.00;;;;;34.73;21.51;98978.41;6133968;28;96584;-60
2024/03/21 12:25:28;;;;;;;;;49.60;40.00;;;;;33.30;23.31;98974.41;6134984;28;96293;-61
2024/03/21 12:28:30;;;;;;;;;49.00;39.00;;;;;32.43;24.01;98974.94;6113800;28;96636;-61
2024/03/21 12:31:34;;;;;;;;;52.00;41.60;;;;;31.74;24.48;98970.03;6125542;28;97162;-61
2024/03/21 12:34:36;;;;;;;;;52.00;40.20;;;;;31.22;26.27;98971.06;6119687;28;96333;-60
2024/03/21 12:37:40;;;;;;;;;48.60;39.00;;;;;30.58;26.12;98965.59;6130173;28;97238;-58
2024/03/21 12:40:41;;;;;;;;;50.00;41.00;;;;;29.92;26.06;98967.81;6112812;28;96491;-58
2024/03/21 12:43:44;;;;;;;;;48.60;39.00;;;;;29.54;27.76;98962.56;6099448;28;96356;-57
2024/03/21 12:46:46;;;;;;;;;50.00;41.00;;;;;29.17;27.61;98965.22;6108722;28;96352;-57
2024/03/21 12:49:48;;;;;;;;;48.25;39.25;;;;;28.90;27.98;98965.81;6111388;28;96695;-57
2024/03/21 12:52:49;;;;;;;;;50.00;40.00;;;;;28.82;28.17;98964.75;6109874;28;96983;-58
2024/03/21 12:55:51;;;;;;;;;49.40;38.80;;;;;28.78;28.49;98952.69;6108909;28;96473;-57
2024/03/21 12:58:53;;;;;;;;;48.50;39.25;;;;;28.71;29.98;98954.38;6114115;28;96904;-58
2024/03/21 13:01:56;;;;;;;;;52.00;39.40;;;;;28.55;30.06;98953.34;6129757;28;96688;-57
2024/03/21 13:04:58;;;;;;;;;49.00;40.00;;;;;28.37;28.92;98947.94;6123752;28;97016;-57
2024/03/21 13:08:01;;;;;;;;;50.40;41.00;;;;;28.17;30.36;98937.66;6121812;28;96989;-56
2024/03/21 13:11:03;;;;;;;;;48.00;39.20;;;;;28.07;30.45;98932.47;6114127;28;96432;-56
2024/03/21 13:14:06;;;;;;;;;51.33;39.00;;;;;27.94;29.28;98933.53;6105927;28;97483;-56
2024/03/21 13:17:08;;;;;;;;;46.00;37.00;;;;;27.57;29.12;98927.66;6110300;28;97550;-57
2024/03/21 13:20:12;;;;;;;;;52.40;40.00;;;;;27.07;29.41;98929.44;6114800;28;96433;-57
2024/03/21 13:23:14;;;;;;;;;52.20;39.00;;;;;26.64;30.94;98924.72;6112180;28;96941;-57
2024/03/21 13:26:17;;;;;;;;;46.00;38.40;;;;;26.41;31.72;98933.53;6117516;28;96285;-57
2024/03/21 13:29:18;;;;;;;;;48.40;39.00;;;;;26.13;31.16;98930.22;6087828;28;98501;-57
2024/03/21 13:32:22;;;;;;;;;44.60;36.00;;;;;25.44;30.31;98910.66;6119844;28;97279;-57
2024/03/21 13:35:24;;;;;;;;;44.60;36.00;;;;;24.94;31.30;98924.69;6110668;28;96585;-57
2024/03/21 13:38:29;;;;;;;;;45.00;36.00;;;;;24.82;34.55;98926.34;6116805;28;96620;-56
2024/03/21 13:41:30;;;;;;;;;48.80;38.40;;;;;24.81;32.11;98914.50;6112624;28;96434;-57
2024/03/21 13:44:33;;;;;;;;;48.80;37.40;;;;;24.60;32.16;98925.22;6111172;28;96394;-57
2024/03/21 13:47:36;;;;;;;;;49.20;39.00;;;;;24.80;33.02;98923.09;6117347;28;96299;-57
2024/03/21 13:50:39;;;;;;;;;45.60;36.40;;;;;24.90;31.91;98918.16;6109931;28;97459;-58
2024/03/21 13:53:40;;;;;;;;;49.00;38.00;;;;;24.92;31.60;98915.88;6107665;28;96936;-57
2024/03/21 13:56:42;;;;;;;;;45.20;37.00;;;;;24.90;32.38;98917.34;6115654;28;97046;-57
2024/03/21 13:59:44;;;;;;;;;46.60;35.80;;;;;24.88;31.63;98912.13;6111505;28;97125;-57
2024/03/21 14:02:48;;;;;;;;;37.20;32.40;;;;;24.78;32.67;98906.03;6109412;28;96549;-57
2024/03/21 14:05:50;;;;;;;;;42.00;33.40;;;;;24.74;32.65;98908.59;6111552;28;97755;-57